Time;durP1;ratioP1;P1;durP2;ratioP2;P2;SDS_P1;SDS_P2;PMS_P1;PMS_P2;Temp;Humidity;BMP_temperature;BMP_pressure;BME280_temperature;BME280_humidity;BME280_pressure;Samples;Min_cycle;Max_cycle;Signal;HPM_P1;HPM_P2
2022/03/14 00:02:33;;;;;;;11.00;6.60;;;22.40;43.80;;;;;;219323;1277;22531;-54
2022/03/14 00:07:37;;;;;;;11.40;6.50;;;22.30;43.80;;;;;;219350;1273;24461;-53
2022/03/14 00:12:42;;;;;;;11.20;5.40;;;22.40;43.60;;;;;;219330;1273;24243;-50
2022/03/14 00:17:47;;;;;;;14.40;7.10;;;22.40;43.50;;;;;;219328;1274;23957;-53
2022/03/14 00:22:52;;;;;;;12.50;6.00;;;22.40;43.70;;;;;;219182;1274;22817;-50
2022/03/14 00:27:55;;;;;;;11.70;6.60;;;22.40;43.40;;;;;;219376;1274;25412;-49
2022/03/14 00:32:59;;;;;;;12.00;6.70;;;22.30;43.50;;;;;;219184;1274;25310;-53
2022/03/14 00:38:17;;;;;;;10.40;6.10;;;22.40;43.10;;;;;;219138;1274;26548;-51
2022/03/14 00:43:20;;;;;;;8.20;5.20;;;22.70;42.40;;;;;;219223;1274;25275;-53
2022/03/14 00:48:25;;;;;;;8.90;5.80;;;23.10;41.80;;;;;;219265;1277;25530;-51
2022/03/14 00:53:35;;;;;;;10.00;6.00;;;23.30;41.70;;;;;;219600;1274;24084;-51
2022/03/14 00:58:45;;;;;;;12.20;6.30;;;23.50;41.40;;;;;;219507;1275;24269;-55
2022/03/14 01:03:49;;;;;;;12.90;6.80;;;23.60;41.00;;;;;;219355;1274;22573;-52
2022/03/14 01:08:53;;;;;;;11.30;6.10;;;23.70;40.60;;;;;;219442;1274;22646;-52
2022/03/14 01:13:56;;;;;;;14.20;6.90;;;23.80;40.30;;;;;;219456;1274;22543;-51
2022/03/14 01:19:11;;;;;;;11.10;6.40;;;23.90;40.00;;;;;;219544;1275;22560;-51
2022/03/14 01:24:14;;;;;;;11.60;6.60;;;23.90;40.20;;;;;;219395;1274;25423;-53
2022/03/14 01:29:22;;;;;;;12.50;6.60;;;23.90;40.20;;;;;;219411;1274;25537;-52
2022/03/14 01:34:26;;;;;;;12.80;7.70;;;24.00;40.10;;;;;;219217;1275;22548;-54
2022/03/14 01:39:31;;;;;;;12.30;7.30;;;24.00;39.80;;;;;;219594;1274;25573;-52
2022/03/14 01:44:34;;;;;;;13.80;7.30;;;24.10;39.80;;;;;;219482;1274;25521;-54
2022/03/14 01:49:41;;;;;;;9.90;6.60;;;24.10;39.80;;;;;;219384;1274;22563;-51
2022/03/14 01:54:45;;;;;;;12.00;7.30;;;24.10;39.60;;;;;;219537;1274;24344;-50
2022/03/14 01:59:49;;;;;;;10.90;7.30;;;24.10;39.70;;;;;;219574;1274;25970;-53
2022/03/14 02:04:56;;;;;;;10.70;7.60;;;24.10;39.40;;;;;;219587;1275;24294;-54
2022/03/14 02:10:28;;;;;;;13.70;7.70;;;24.20;39.80;;;;;;219280;1274;25497;-53
2022/03/14 02:15:33;;;;;;;12.90;7.50;;;24.20;40.30;;;;;;219489;1274;22568;-50
2022/03/14 02:20:37;;;;;;;10.90;7.10;;;24.20;39.80;;;;;;219263;1274;22572;-51
2022/03/14 02:25:55;;;;;;;13.80;8.20;;;24.20;40.10;;;;;;219304;1274;26364;-51
2022/03/14 02:31:09;;;;;;;13.40;7.90;;;24.20;39.80;;;;;;219369;1274;26228;-51
2022/03/14 02:36:22;;;;;;;15.30;8.00;;;24.30;39.70;;;;;;219490;1274;24571;-52
2022/03/14 02:41:25;;;;;;;12.00;8.30;;;24.30;39.50;;;;;;219423;1274;24250;-52
2022/03/14 02:46:34;;;;;;;12.30;8.30;;;24.30;39.50;;;;;;219561;1274;22556;-51
2022/03/14 02:51:40;;;;;;;13.30;8.30;;;24.20;39.60;;;;;;219456;1274;22601;-51
2022/03/14 02:56:43;;;;;;;19.10;10.50;;;24.00;39.80;;;;;;219412;1275;22532;-51
2022/03/14 03:01:47;;;;;;;13.60;9.10;;;23.90;39.90;;;;;;219445;1274;22616;-53
2022/03/14 03:06:53;;;;;;;14.40;8.60;;;23.80;40.50;;;;;;219314;1273;25665;-54
2022/03/14 03:11:56;;;;;;;13.20;8.90;;;23.70;40.20;;;;;;219430;1273;22637;-52
2022/03/14 03:17:06;;;;;;;13.00;8.50;;;23.60;40.30;;;;;;219412;1273;22637;-52
2022/03/14 03:22:11;;;;;;;13.30;8.60;;;23.50;40.60;;;;;;219460;1274;22829;-51
2022/03/14 03:27:17;;;;;;;12.70;8.90;;;23.30;40.80;;;;;;219463;1273;26494;-51
2022/03/14 03:32:21;;;;;;;16.00;9.10;;;23.20;41.10;;;;;;219520;1273;24281;-52
2022/03/14 03:37:25;;;;;;;11.60;8.20;;;23.20;41.00;;;;;;219382;1273;25352;-50
2022/03/14 03:42:29;;;;;;;16.00;9.30;;;23.10;41.10;;;;;;219370;1273;23161;-52
2022/03/14 03:47:33;;;;;;;14.20;8.70;;;23.00;41.20;;;;;;219358;1274;25273;-51
2022/03/14 03:52:37;;;;;;;14.80;9.40;;;22.90;41.30;;;;;;219551;1273;22561;-51
2022/03/14 03:57:41;;;;;;;17.00;9.20;;;22.90;41.60;;;;;;219347;1273;22718;-51
2022/03/14 04:02:44;;;;;;;13.70;9.50;;;22.80;41.80;;;;;;219568;1273;22535;-50
2022/03/14 04:07:48;;;;;;;15.90;9.60;;;22.80;41.70;;;;;;219457;1273;26545;-51
2022/03/14 04:12:52;;;;;;;16.90;10.40;;;22.60;42.40;;;;;;219523;1273;24326;-51
2022/03/14 04:17:57;;;;;;;14.80;9.50;;;22.60;41.90;;;;;;219435;1273;22540;-52
2022/03/14 04:23:05;;;;;;;14.90;8.90;;;22.50;41.80;;;;;;219591;1273;25274;-51
2022/03/14 04:28:09;;;;;;;12.70;8.60;;;22.80;42.00;;;;;;219517;1272;24247;-51
2022/03/14 04:33:13;;;;;;;13.80;9.00;;;23.20;41.20;;;;;;219394;1273;22593;-51
2022/03/14 04:38:18;;;;;;;13.60;8.90;;;23.50;40.70;;;;;;219457;1273;22780;-54
2022/03/14 04:43:24;;;;;;;14.90;8.90;;;23.60;40.80;;;;;;219376;1273;22626;-50
2022/03/14 04:48:28;;;;;;;15.00;9.50;;;23.80;39.90;;;;;;219347;1273;274257;-51
2022/03/14 04:53:32;;;;;;;13.30;9.50;;;23.80;39.70;;;;;;219483;1273;22643;-53
2022/03/14 04:58:39;;;;;;;14.20;9.30;;;23.90;39.70;;;;;;219422;1273;22663;-55
2022/03/14 05:03:43;;;;;;;14.00;9.00;;;24.00;40.00;;;;;;219501;1273;22732;-54
2022/03/14 05:08:47;;;;;;;15.80;9.40;;;24.00;39.40;;;;;;219485;1273;22688;-53
2022/03/14 05:13:51;;;;;;;14.50;9.30;;;24.10;39.40;;;;;;219491;1273;25501;-53
2022/03/14 05:18:57;;;;;;;14.40;9.30;;;24.10;39.10;;;;;;219511;1273;24393;-51
2022/03/14 05:24:05;;;;;;;14.90;9.80;;;24.10;39.00;;;;;;219389;1273;23045;-53
2022/03/14 05:29:12;;;;;;;16.30;9.90;;;24.10;39.00;;;;;;219543;1273;23938;-52
2022/03/14 05:34:16;;;;;;;14.70;9.60;;;24.10;39.10;;;;;;219465;1273;22783;-51
2022/03/14 05:39:21;;;;;;;16.50;10.00;;;24.10;39.30;;;;;;219503;1273;22553;-51
2022/03/14 05:44:25;;;;;;;16.00;10.10;;;24.20;39.30;;;;;;219632;1273;25491;-51
2022/03/14 05:49:28;;;;;;;16.40;10.10;;;24.20;39.20;;;;;;219390;1273;22558;-50
2022/03/14 05:54:34;;;;;;;14.20;9.70;;;24.20;39.40;;;;;;219343;1273;22622;-51
2022/03/14 05:59:40;;;;;;;13.70;9.40;;;24.20;39.20;;;;;;219398;1274;25381;-51
2022/03/14 06:04:44;;;;;;;15.00;9.60;;;24.20;39.60;;;;;;219477;1273;24241;-53
2022/03/14 06:09:49;;;;;;;14.70;9.80;;;24.20;39.20;;;;;;219719;1273;22788;-53
2022/03/14 06:14:54;;;;;;;15.50;9.90;;;24.20;39.30;;;;;;219396;1273;22564;-51
2022/03/14 06:19:59;;;;;;;15.90;10.10;;;24.30;39.20;;;;;;219422;1274;26610;-51
2022/03/14 06:25:18;;;;;;;17.00;10.10;;;24.30;39.00;;;;;;219423;1273;22566;-51
2022/03/14 06:30:29;;;;;;;13.20;9.20;;;24.40;39.00;;;;;;219433;1273;22685;-53
2022/03/14 06:35:34;;;;;;;14.40;9.90;;;24.40;38.80;;;;;;219673;1273;22546;-53
2022/03/14 06:40:50;;;;;;;15.80;10.20;;;24.40;38.90;;;;;;219419;1273;25551;-53
2022/03/14 06:45:56;;;;;;;13.80;9.90;;;24.30;38.90;;;;;;219347;1275;24327;-53
2022/03/14 06:51:00;;;;;;;14.20;9.70;;;24.20;39.00;;;;;;219429;1273;26536;-55
2022/03/14 06:56:06;;;;;;;17.90;10.50;;;24.10;39.00;;;;;;219293;1274;22537;-53
2022/03/14 07:01:22;;;;;;;16.60;9.40;;;24.00;39.40;;;;;;219403;1272;24236;-52
2022/03/14 07:06:26;;;;;;;14.40;9.70;;;23.90;39.60;;;;;;219537;1273;25891;-51
2022/03/14 07:11:30;;;;;;;18.30;11.10;;;23.70;39.10;;;;;;219466;1273;22551;-54
2022/03/14 07:16:37;;;;;;;18.00;11.00;;;23.60;39.10;;;;;;219470;1273;22604;-50
2022/03/14 07:21:45;;;;;;;13.00;9.00;;;23.50;39.10;;;;;;219507;1273;25397;-52
2022/03/14 07:26:49;;;;;;;18.40;11.40;;;23.40;39.30;;;;;;219254;1273;22734;-50
2022/03/14 07:31:54;;;;;;;21.90;11.20;;;23.40;39.00;;;;;;219351;1273;25443;-51
2022/03/14 07:37:05;;;;;;;18.00;9.80;;;23.40;39.70;;;;;;219395;1273;22545;-50
2022/03/14 07:42:23;;;;;;;;;;;23.20;41.20;;;;;;219562;1273;22555;-50
2022/03/14 07:47:27;;;;;;;18.90;10.40;;;23.20;41.80;;;;;;219517;1273;22635;-49
2022/03/14 07:52:32;;;;;;;22.00;10.00;;;23.10;42.60;;;;;;219550;1273;24403;-52
2022/03/14 07:57:38;;;;;;;20.80;9.00;;;23.00;43.20;;;;;;219424;1273;22735;-50
2022/03/14 08:02:43;;;;;;;17.40;9.50;;;23.00;43.30;;;;;;219295;1274;25330;-52
2022/03/14 08:07:47;;;;;;;15.90;9.00;;;22.90;43.70;;;;;;219851;1273;22769;-51
2022/03/14 08:12:56;;;;;;;16.50;9.10;;;22.90;43.80;;;;;;219458;1274;22750;-54
2022/03/14 08:18:09;;;;;;;13.50;8.20;;;22.90;43.50;;;;;;219509;1273;24222;-50
2022/03/14 08:23:18;;;;;;;18.70;8.40;;;22.90;43.70;;;;;;219471;1273;22532;-49
2022/03/14 08:28:23;;;;;;;26.30;10.20;;;22.90;43.70;;;;;;219597;1273;25298;-50
2022/03/14 08:33:29;;;;;;;22.30;9.60;;;22.80;44.10;;;;;;219058;1275;24171;-49
2022/03/14 08:38:34;;;;;;;17.70;10.00;;;22.80;44.10;;;;;;219469;1273;25640;-51
2022/03/14 08:43:38;;;;;;;16.10;8.80;;;22.90;43.60;;;;;;219814;1273;22635;-48
2022/03/14 08:48:46;;;;;;;16.90;8.80;;;22.90;43.40;;;;;;219932;1273;22548;-49
2022/03/14 08:53:49;;;;;;;17.20;8.70;;;22.90;43.40;;;;;;219974;1273;22727;-53
2022/03/14 08:59:10;;;;;;;14.70;8.30;;;22.90;43.10;;;;;;219565;1273;22574;-51
2022/03/14 09:04:13;;;;;;;15.20;8.90;;;22.90;42.60;;;;;;220793;1273;22681;-52
2022/03/14 09:09:18;;;;;;;13.50;8.10;;;22.80;42.10;;;;;;219258;1273;22653;-55
2022/03/14 09:14:36;;;;;;;15.60;9.30;;;22.80;42.20;;;;;;219291;1273;22532;-52
2022/03/14 09:19:40;;;;;;;20.20;9.00;;;22.90;42.00;;;;;;220472;1273;27648;-54
2022/03/14 09:24:47;;;;;;;13.80;8.00;;;22.90;42.10;;;;;;227657;1275;22381;-52
2022/03/14 09:29:52;;;;;;;14.70;8.30;;;22.90;42.00;;;;;;221506;1273;24322;-52
2022/03/14 09:34:59;;;;;;;16.40;8.90;;;23.00;41.90;;;;;;219405;1274;24240;-51
2022/03/14 09:40:23;;;;;;;15.70;7.70;;;23.00;41.80;;;;;;219286;1273;22608;-50
2022/03/14 09:45:30;;;;;;;12.80;7.90;;;23.00;41.90;;;;;;219563;1273;22596;-53
2022/03/14 09:50:41;;;;;;;13.70;7.60;;;22.90;42.00;;;;;;219552;1273;22559;-50
2022/03/14 09:55:46;;;;;;;16.40;8.10;;;22.90;42.30;;;;;;219326;1273;22615;-53
2022/03/14 10:00:54;;;;;;;12.20;8.50;;;22.90;42.30;;;;;;219626;1274;22555;-50
2022/03/14 10:05:57;;;;;;;14.50;7.90;;;23.00;42.20;;;;;;219354;1273;25990;-50
2022/03/14 10:11:19;;;;;;;12.30;7.90;;;23.00;42.10;;;;;;219413;1273;22608;-51
2022/03/14 10:16:25;;;;;;;12.50;7.30;;;23.00;42.00;;;;;;219513;1273;22554;-54
2022/03/14 10:21:43;;;;;;;10.90;7.10;;;23.10;41.90;;;;;;219457;1273;24266;-50
2022/03/14 10:26:47;;;;;;;15.30;7.90;;;23.10;41.80;;;;;;219322;1275;22623;-52
2022/03/14 10:31:56;;;;;;;10.90;6.60;;;23.20;41.80;;;;;;219430;1274;22580;-54
2022/03/14 10:36:59;;;;;;;11.60;7.40;;;23.10;41.60;;;;;;219474;1273;22631;-52
2022/03/14 10:42:13;;;;;;;12.70;7.40;;;23.20;41.30;;;;;;219482;1273;22539;-52
2022/03/14 10:47:30;;;;;;;11.70;6.50;;;23.20;41.30;;;;;;219624;1273;24240;-50
2022/03/14 10:52:34;;;;;;;9.90;6.70;;;23.30;41.30;;;;;;219470;1273;25436;-50
2022/03/14 10:57:47;;;;;;;9.90;6.80;;;23.30;41.30;;;;;;219512;1273;22558;-51
2022/03/14 11:03:08;;;;;;;12.30;7.10;;;23.30;41.10;;;;;;219550;1273;22762;-50
2022/03/14 11:08:35;;;;;;;9.20;6.20;;;23.40;41.00;;;;;;219848;1273;25443;-51
2022/03/14 11:13:40;;;;;;;11.40;6.80;;;23.30;41.00;;;;;;219521;1273;22558;-59
2022/03/14 11:18:45;;;;;;;10.30;6.80;;;23.40;40.70;;;;;;219573;1273;22604;-50
2022/03/14 11:23:49;;;;;;;11.20;6.50;;;23.40;40.70;;;;;;219688;1273;25631;-51
2022/03/14 11:28:56;;;;;;;12.00;7.00;;;23.40;40.70;;;;;;219499;1273;26627;-52
2022/03/14 11:34:06;;;;;;;10.60;6.50;;;23.50;40.60;;;;;;219684;1273;24353;-53
2022/03/14 11:39:18;;;;;;;10.40;6.50;;;23.50;40.80;;;;;;219528;1273;24693;-51
2022/03/14 11:44:26;;;;;;;11.20;6.50;;;23.60;40.80;;;;;;219610;1273;22588;-52
2022/03/14 11:49:42;;;;;;;10.10;6.30;;;23.50;40.40;;;;;;219470;1273;25538;-52
2022/03/14 11:54:58;;;;;;;10.20;6.80;;;23.60;40.60;;;;;;219303;1276;26883;-54
2022/03/14 12:00:33;;;;;;;9.10;6.00;;;23.50;40.00;;;;;;219556;1273;22554;-54
2022/03/14 12:05:38;;;;;;;10.40;6.10;;;23.40;39.00;;;;;;219564;1273;26704;-54
2022/03/14 12:10:53;;;;;;;8.90;5.60;;;23.50;39.40;;;;;;219460;1273;24276;-52
2022/03/14 12:15:57;;;;;;;8.60;5.90;;;23.50;39.70;;;;;;219565;1273;25310;-50
2022/03/14 12:21:52;;;;;;;7.40;5.40;;;23.50;39.90;;;;;;219447;1275;22696;-49
2022/03/14 12:27:05;;;;;;;7.90;5.40;;;23.50;39.90;;;;;;219518;1273;22554;-53
2022/03/14 12:32:26;;;;;;;8.60;5.90;;;23.50;40.00;;;;;;219560;1275;24316;-51
2022/03/14 12:37:50;;;;;;;9.60;5.50;;;23.60;40.00;;;;;;219337;1275;22558;-52
2022/03/14 12:43:04;;;;;;;10.60;6.00;;;23.60;40.00;;;;;;219472;1273;25229;-49
2022/03/14 12:48:24;;;;;;;7.80;5.50;;;23.60;40.00;;;;;;219478;1273;25785;-52
2022/03/14 12:53:29;;;;;;;9.40;5.80;;;23.60;39.50;;;;;;219547;1273;25357;-50
2022/03/14 12:58:35;;;;;;;8.20;5.50;;;23.60;39.90;;;;;;219595;1274;25437;-49
2022/03/14 13:03:55;;;;;;;8.00;5.60;;;23.60;40.20;;;;;;219376;1273;24264;-51
2022/03/14 13:09:09;;;;;;;7.40;5.00;;;23.60;40.10;;;;;;219483;1273;24069;-50
2022/03/14 13:14:23;;;;;;;8.20;5.40;;;23.60;40.20;;;;;;219831;1273;25358;-50
2022/03/14 13:19:28;;;;;;;8.50;5.20;;;23.60;40.10;;;;;;219627;1273;22655;-50
2022/03/14 13:24:35;;;;;;;8.60;5.10;;;23.60;40.30;;;;;;219576;1273;24681;-50
2022/03/14 13:29:43;;;;;;;8.90;5.60;;;23.60;39.80;;;;;;219544;1273;22577;-52
2022/03/14 13:35:09;;;;;;;9.00;5.60;;;23.60;40.00;;;;;;219616;1273;22577;-50
2022/03/14 13:40:20;;;;;;;7.10;5.00;;;23.60;40.40;;;;;;219555;1273;22800;-50
2022/03/14 13:45:26;;;;;;;6.50;4.60;;;23.50;40.40;;;;;;219459;1273;22675;-53
2022/03/14 13:50:31;;;;;;;11.00;5.30;;;23.60;40.00;;;;;;219650;1273;22595;-54
2022/03/14 13:55:35;;;;;;;9.10;5.00;;;23.50;40.00;;;;;;219797;1273;24383;-53
2022/03/14 14:00:39;;;;;;;8.00;5.50;;;23.50;40.00;;;;;;219633;1273;22702;-51
2022/03/14 14:05:43;;;;;;;9.70;5.70;;;23.50;40.50;;;;;;219589;1273;22563;-51
2022/03/14 14:10:47;;;;;;;8.20;5.10;;;23.60;40.10;;;;;;219797;1273;22535;-51
2022/03/14 14:15:52;;;;;;;7.60;5.00;;;23.50;39.70;;;;;;219455;1273;22601;-52
2022/03/14 14:20:56;;;;;;;7.50;4.90;;;23.50;40.00;;;;;;219644;1272;25474;-50
2022/03/14 14:25:59;;;;;;;10.40;5.00;;;23.50;39.90;;;;;;219530;1273;22612;-53
2022/03/14 14:31:23;;;;;;;10.00;5.00;;;23.40;39.90;;;;;;219520;1273;22625;-54
2022/03/14 14:36:30;;;;;;;6.30;4.70;;;23.40;39.90;;;;;;219639;1273;25258;-51
2022/03/14 14:41:34;;;;;;;8.30;4.90;;;23.30;39.80;;;;;;219385;1273;22548;-51
2022/03/14 14:46:39;;;;;;;8.10;4.90;;;23.30;40.00;;;;;;219657;1273;24332;-53
2022/03/14 14:51:48;;;;;;;7.30;4.70;;;23.30;40.00;;;;;;219716;1273;22597;-50
2022/03/14 14:56:52;;;;;;;9.30;4.70;;;23.20;39.90;;;;;;219581;1274;22565;-53
2022/03/14 15:01:56;;;;;;;7.50;4.60;;;23.10;40.00;;;;;;219561;1275;23722;-50
2022/03/14 15:07:00;;;;;;;8.50;4.60;;;23.10;40.00;;;;;;219612;1273;22794;-52
2022/03/14 15:12:05;;;;;;;14.70;5.10;;;23.10;40.00;;;;;;219601;1273;22550;-52
2022/03/14 15:17:12;;;;;;;9.00;5.10;;;23.10;40.00;;;;;;219305;1273;25535;-50
2022/03/14 15:22:16;;;;;;;12.30;4.70;;;23.10;40.00;;;;;;219330;1273;26508;-50
2022/03/14 15:27:40;;;;;;;9.20;5.00;;;23.00;40.00;;;;;;219409;1273;25975;-51
2022/03/14 15:32:50;;;;;;;7.50;4.60;;;23.00;40.30;;;;;;219466;1273;22525;-51
2022/03/14 15:38:05;;;;;;;9.50;5.30;;;22.90;40.30;;;;;;219141;1273;24436;-53
2022/03/14 15:43:36;;;;;;;7.40;4.80;;;22.90;40.40;;;;;;219335;1273;22790;-52
2022/03/14 15:48:53;;;;;;;9.20;4.60;;;22.90;40.60;;;;;;219121;1273;24271;-54
2022/03/14 15:53:57;;;;;;;9.90;5.60;;;22.80;40.60;;;;;;218986;1273;24371;-53
2022/03/14 15:59:02;;;;;;;8.00;4.80;;;22.80;41.10;;;;;;219273;1273;24295;-51
2022/03/14 16:04:18;;;;;;;9.20;4.90;;;22.80;40.90;;;;;;219428;1273;25600;-53
2022/03/14 16:09:41;;;;;;;7.10;4.70;;;22.80;41.10;;;;;;219654;1273;25316;-51
2022/03/14 16:14:48;;;;;;;9.70;5.20;;;22.80;41.20;;;;;;219380;1273;25274;-53
2022/03/14 16:20:16;;;;;;;8.70;5.10;;;22.70;41.80;;;;;;219404;1273;24217;-53
2022/03/14 16:25:32;;;;;;;8.50;4.40;;;22.70;41.30;;;;;;219433;1272;24331;-53
2022/03/14 16:30:42;;;;;;;12.20;4.70;;;22.90;41.00;;;;;;219773;1273;26668;-51
2022/03/14 16:36:06;;;;;;;12.70;5.50;;;23.20;40.50;;;;;;219842;1274;25464;-51
2022/03/14 16:41:48;;;;;;;7.40;4.50;;;23.50;40.20;;;;;;219460;1273;25640;-55
2022/03/14 16:47:04;;;;;;;9.20;5.30;;;23.60;40.10;;;;;;219408;1273;519627;-52
2022/03/14 16:52:35;;;;;;;12.40;5.40;;;23.70;39.70;;;;;;219365;1273;22584;-52
2022/03/14 16:57:52;;;;;;;10.90;5.20;;;23.80;39.70;;;;;;219223;1273;22587;-53
2022/03/14 17:03:20;;;;;;;11.40;6.10;;;23.80;40.40;;;;;;219235;1273;22692;-55
2022/03/14 17:08:28;;;;;;;38.00;13.70;;;23.80;41.20;;;;;;219529;1273;26492;-53
2022/03/14 17:13:40;;;;;;;43.20;14.00;;;23.90;40.60;;;;;;219362;1273;22541;-54
2022/03/14 17:18:58;;;;;;;36.20;13.20;;;23.90;40.00;;;;;;219366;1276;22546;-54
2022/03/14 17:24:04;;;;;;;30.50;11.90;;;23.80;40.50;;;;;;219445;1273;25413;-52
2022/03/14 17:29:08;;;;;;;30.60;12.70;;;23.70;39.00;;;;;;219311;1273;25647;-53
2022/03/14 17:34:12;;;;;;;28.80;10.90;;;23.60;39.10;;;;;;219008;1274;22653;-53
2022/03/14 17:39:24;;;;;;;31.90;11.70;;;23.40;39.80;;;;;;219311;1273;22716;-51
2022/03/14 17:44:32;;;;;;;33.90;12.30;;;23.40;40.70;;;;;;219616;1273;22549;-51
2022/03/14 17:49:57;;;;;;;28.00;10.10;;;23.40;40.70;;;;;;219562;1273;23272;-50
2022/03/14 17:55:24;;;;;;;23.90;9.80;;;23.30;40.70;;;;;;219479;1273;25616;-50
2022/03/14 18:00:34;;;;;;;23.10;9.50;;;23.20;40.90;;;;;;219556;1273;25323;-50
2022/03/14 18:05:46;;;;;;;27.60;10.80;;;23.20;41.00;;;;;;219617;1275;22619;-50
2022/03/14 18:10:51;;;;;;;22.40;9.40;;;23.20;41.40;;;;;;219243;1277;22557;-50
2022/03/14 18:16:00;;;;;;;24.00;9.90;;;23.10;41.00;;;;;;219778;1273;26963;-49
2022/03/14 18:21:04;;;;;;;17.90;9.50;;;23.00;40.30;;;;;;219621;1273;24444;-51
2022/03/14 18:26:08;;;;;;;26.00;10.60;;;23.00;40.70;;;;;;219491;1273;22554;-49
2022/03/14 18:31:13;;;;;;;24.20;10.00;;;23.00;40.60;;;;;;219732;1274;24090;-49
2022/03/14 18:36:23;;;;;;;22.70;9.50;;;22.90;40.30;;;;;;219510;1273;22766;-49
2022/03/14 18:41:28;;;;;;;22.70;9.10;;;22.90;40.20;;;;;;219429;1273;25417;-50
2022/03/14 18:46:32;;;;;;;19.90;8.40;;;22.90;40.50;;;;;;219750;1273;22999;-49
2022/03/14 18:51:41;;;;;;;21.20;9.30;;;22.80;40.00;;;;;;219555;1273;24284;-49
2022/03/14 18:56:52;;;;;;;22.00;9.70;;;22.80;39.90;;;;;;219583;1273;24243;-47
2022/03/14 19:02:01;;;;;;;21.70;9.50;;;22.80;40.00;;;;;;219631;1276;22777;-49
2022/03/14 19:07:07;;;;;;;20.90;9.00;;;22.80;40.30;;;;;;219769;1273;24266;-49
2022/03/14 19:12:15;;;;;;;26.00;9.10;;;22.80;40.00;;;;;;219677;1273;22566;-49
2022/03/14 19:17:30;;;;;;;24.50;10.30;;;22.60;39.90;;;;;;219605;1276;26562;-48
2022/03/14 19:23:01;;;;;;;16.90;9.00;;;22.70;40.20;;;;;;219542;1273;22554;-50
2022/03/14 19:28:21;;;;;;;22.10;8.60;;;22.60;40.00;;;;;;219561;1273;22489;-50
2022/03/14 19:33:28;;;;;;;18.00;9.70;;;22.60;39.90;;;;;;219315;1273;24281;-58
2022/03/14 19:38:33;;;;;;;32.90;9.80;;;22.60;40.10;;;;;;219470;1275;22711;-51
2022/03/14 19:43:39;;;;;;;25.70;9.00;;;22.70;40.40;;;;;;219705;1273;24333;-52
2022/03/14 19:48:47;;;;;;;21.90;9.20;;;22.60;40.60;;;;;;219575;1276;26644;-54
2022/03/14 19:54:07;;;;;;;24.60;9.90;;;22.60;41.00;;;;;;219343;1273;22711;-52
2022/03/14 19:59:12;;;;;;;23.60;9.90;;;22.50;40.50;;;;;;219714;1273;23983;-53
2022/03/14 20:04:17;;;;;;;31.50;11.90;;;22.60;40.80;;;;;;219593;1277;24375;-53
2022/03/14 20:09:21;;;;;;;20.90;11.50;;;22.50;40.30;;;;;;219561;1274;22633;-51
2022/03/14 20:14:37;;;;;;;25.90;11.10;;;22.40;39.70;;;;;;219333;1273;25364;-50
2022/03/14 20:19:50;;;;;;;27.30;12.60;;;22.40;40.10;;;;;;219530;1274;26505;-52
2022/03/14 20:25:20;;;;;;;28.00;12.60;;;22.40;39.90;;;;;;219469;1274;22585;-51
2022/03/14 20:30:41;;;;;;;18.70;11.50;;;22.30;39.30;;;;;;219327;1275;22620;-55
2022/03/14 20:35:46;;;;;;;24.10;13.40;;;22.30;39.40;;;;;;219569;1275;23202;-51
2022/03/14 20:41:02;;;;;;;22.20;13.00;;;22.20;39.60;;;;;;219506;1274;22996;-54
2022/03/14 20:46:19;;;;;;;20.20;12.20;;;22.30;40.00;;;;;;219420;1272;26473;-54
2022/03/14 20:51:32;;;;;;;19.90;12.20;;;22.30;40.30;;;;;;219337;1275;22716;-54
2022/03/14 20:56:48;;;;;;;16.80;10.70;;;22.30;40.10;;;;;;219514;1272;22567;-53
2022/03/14 21:07:40;;;;;;;26.30;13.10;;;22.30;39.80;;;;;;219535;1274;22560;-55
2022/03/14 21:12:57;;;;;;;21.30;11.40;;;22.30;40.00;;;;;;219256;1274;23589;-54
2022/03/14 21:18:03;;;;;;;29.80;13.00;;;22.30;40.20;;;;;;219166;1275;22597;-52
2022/03/14 21:23:15;;;;;;;24.90;12.50;;;22.20;40.00;;;;;;219432;1274;22550;-55
2022/03/14 21:28:23;;;;;;;25.90;12.60;;;22.20;39.60;;;;;;219362;1276;22590;-57
2022/03/14 21:33:48;;;;;;;25.40;13.20;;;22.20;39.40;;;;;;219084;1274;22600;-54
2022/03/14 21:38:58;;;;;;;18.70;11.70;;;22.20;39.30;;;;;;219441;1277;24333;-55
2022/03/14 21:44:11;;;;;;;27.90;13.60;;;22.30;39.00;;;;;;219400;1274;22529;-54
2022/03/14 21:49:16;;;;;;;24.50;13.10;;;22.60;38.70;;;;;;219278;1274;22555;-53
2022/03/14 21:54:31;;;;;;;23.00;13.00;;;22.80;38.30;;;;;;219305;1273;25445;-52
2022/03/14 21:59:35;;;;;;;20.90;13.00;;;22.90;38.50;;;;;;219665;1271;22607;-55
2022/03/14 22:04:40;;;;;;;22.20;12.40;;;23.00;38.10;;;;;;219380;1273;25648;-52
2022/03/14 22:09:47;;;;;;;26.20;11.80;;;23.30;39.70;;;;;;219183;1274;22730;-55
2022/03/14 22:15:03;;;;;;;21.30;12.40;;;23.40;40.80;;;;;;219415;1273;22599;-60
2022/03/14 22:20:28;;;;;;;23.10;12.60;;;23.50;40.90;;;;;;219455;1273;25287;-54
2022/03/14 22:26:31;;;;;;;24.60;12.80;;;23.50;40.50;;;;;;219424;1275;23065;-56
2022/03/14 22:31:44;;;;;;;25.80;13.40;;;23.60;41.70;;;;;;219386;1275;22544;-56
2022/03/14 22:37:10;;;;;;;25.00;12.40;;;23.60;41.60;;;;;;219448;1273;22558;-54
2022/03/14 22:42:52;;;;;;;20.40;12.90;;;23.70;41.80;;;;;;219632;1273;25326;-54
2022/03/14 22:48:09;;;;;;;23.70;11.90;;;23.80;42.10;;;;;;219473;1275;22693;-54
2022/03/14 22:53:14;;;;;;;19.10;12.60;;;23.90;41.40;;;;;;219657;1273;22566;-52
2022/03/14 22:58:45;;;;;;;21.30;12.70;;;23.90;41.10;;;;;;220088;1273;22621;-51
2022/03/14 23:09:53;;;;;;;19.60;12.20;;;24.10;40.70;;;;;;219625;1273;25358;-52
2022/03/14 23:15:16;;;;;;;22.40;12.60;;;24.10;40.90;;;;;;220818;1273;25068;-57
2022/03/14 23:20:37;;;;;;;26.40;12.70;;;24.20;40.30;;;;;;219445;1273;25344;-52
2022/03/14 23:25:54;;;;;;;;;;;24.20;40.50;;;;;;219565;1273;22541;-54
2022/03/14 23:31:09;;;;;;;23.70;12.40;;;24.20;40.00;;;;;;219415;1273;22561;-54
2022/03/14 23:36:20;;;;;;;21.10;13.40;;;24.30;40.60;;;;;;219274;1273;23042;-53
2022/03/14 23:41:32;;;;;;;22.50;11.90;;;24.30;39.80;;;;;;219530;1273;25487;-53
2022/03/14 23:46:38;;;;;;;22.50;11.70;;;24.30;39.70;;;;;;219503;1273;22580;-54
2022/03/14 23:51:44;;;;;;;20.60;12.10;;;24.30;39.80;;;;;;219391;1273;24240;-56
2022/03/14 23:56:48;;;;;;;20.70;11.30;;;24.20;40.00;;;;;;219565;1274;25450;-56
